createdAt,value
2022-07-31T00:02:17.556Z,21.2
2022-07-31T00:07:52.619Z,21.2
2022-07-31T00:13:56.966Z,21.1
2022-07-31T00:19:55.669Z,21.1
2022-07-31T00:25:28.356Z,21
2022-07-31T00:31:03.241Z,21
2022-07-31T00:36:38.092Z,21
2022-07-31T00:42:14.039Z,20.9
2022-07-31T00:47:48.789Z,20.8
2022-07-31T00:53:31.866Z,20.8
2022-07-31T00:59:06.895Z,20.8
2022-07-31T01:04:41.947Z,20.8
2022-07-31T01:10:20.726Z,20.7
2022-07-31T01:15:55.509Z,20.6
2022-07-31T01:21:30.436Z,20.6
2022-07-31T01:27:05.572Z,20.6
2022-07-31T01:32:41.739Z,20.5
2022-07-31T01:38:16.540Z,20.5
2022-07-31T01:43:52.540Z,20.5
2022-07-31T01:49:28.303Z,20.5
2022-07-31T01:55:04.265Z,20.5
2022-07-31T02:00:40.024Z,20.4
2022-07-31T02:06:16.492Z,20.4
2022-07-31T02:11:53.616Z,20.4
2022-07-31T02:17:53.271Z,20.4
2022-07-31T02:23:26.995Z,20.4
2022-07-31T02:29:02.056Z,20.4
2022-07-31T02:34:37.217Z,20.4
2022-07-31T02:40:12.077Z,20.4
2022-07-31T02:45:48.415Z,20.4
2022-07-31T02:51:24.236Z,20.3
2022-07-31T02:56:59.145Z,20.3
2022-07-31T03:02:36.850Z,20.3
2022-07-31T03:08:13.039Z,20.3
2022-07-31T03:13:47.860Z,20.3
2022-07-31T03:19:44.545Z,20.3
2022-07-31T03:25:20.034Z,20.3
2022-07-31T03:30:57.186Z,20.3
2022-07-31T03:36:31.863Z,20.3
2022-07-31T03:42:07.221Z,20.3
2022-07-31T03:47:54.275Z,20.3
2022-07-31T03:53:29.932Z,20.2
2022-07-31T03:59:05.691Z,20.2
2022-07-31T04:04:43.254Z,20.2
2022-07-31T04:10:18.020Z,20.2
2022-07-31T04:15:52.912Z,20.2
2022-07-31T04:21:27.767Z,20.2
2022-07-31T04:27:02.620Z,20.1
2022-07-31T04:32:37.466Z,20.1
2022-07-31T04:38:13.250Z,20.2
2022-07-31T04:43:48.048Z,20.1
2022-07-31T04:49:23.120Z,20.1
2022-07-31T04:54:58.792Z,20.1
2022-07-31T05:00:33.691Z,20
2022-07-31T05:06:08.746Z,20.1
2022-07-31T05:11:46.678Z,20.1
2022-07-31T05:17:43.440Z,20.1
2022-07-31T05:23:16.355Z,20.1
2022-07-31T05:28:54.130Z,20.1
2022-07-31T05:34:33.532Z,20.1
2022-07-31T05:40:09.447Z,20.2
2022-07-31T05:45:44.264Z,20.2
2022-07-31T05:51:19.194Z,20.2
2022-07-31T05:56:57.317Z,20.3
2022-07-31T06:02:32.104Z,20.3
2022-07-31T06:08:06.801Z,20.4
2022-07-31T06:13:44.274Z,20.4
2022-07-31T06:19:41.032Z,20.5
2022-07-31T06:25:13.716Z,20.8
2022-07-31T06:30:50.984Z,20.9
2022-07-31T06:36:26.073Z,21.2
2022-07-31T06:42:01.345Z,21.3
2022-07-31T06:47:40.464Z,21.7
2022-07-31T06:53:16.539Z,21.6
2022-07-31T06:58:51.463Z,21.6
2022-07-31T07:04:56.587Z,21.6
2022-07-31T07:10:41.958Z,22.1
2022-07-31T07:16:38.835Z,22.4
2022-07-31T07:22:12.412Z,22.7
2022-07-31T07:27:47.187Z,22.6
2022-07-31T07:33:39.399Z,22.4
2022-07-31T07:39:18.858Z,22.7
2022-07-31T07:44:53.644Z,22.8
2022-07-31T07:50:29.056Z,22.6
2022-07-31T07:56:04.618Z,23.5
2022-07-31T08:01:39.567Z,23.5
2022-07-31T08:07:15.610Z,23.2
2022-07-31T08:12:50.621Z,22.4
2022-07-31T08:18:47.193Z,22.2
2022-07-31T08:24:19.940Z,22.1
2022-07-31T08:29:55.861Z,22.1
2022-07-31T08:35:32.786Z,22
2022-07-31T08:41:07.563Z,21.9
2022-07-31T08:46:42.339Z,21.9
2022-07-31T08:52:18.070Z,22.1
2022-07-31T08:57:53.083Z,22.1
2022-07-31T09:03:27.866Z,22.1
2022-07-31T09:09:02.729Z,22.1
2022-07-31T09:14:37.816Z,22.1
2022-07-31T09:20:12.580Z,22.1
2022-07-31T09:25:47.830Z,22.2
2022-07-31T09:31:26.389Z,22.2
2022-07-31T09:37:01.299Z,22.3
2022-07-31T09:42:39.458Z,22.3
2022-07-31T09:48:31.443Z,22.4
2022-07-31T09:54:10.496Z,22.6
2022-07-31T09:59:45.358Z,22.6
2022-07-31T10:05:20.683Z,22.6
2022-07-31T10:10:55.847Z,22.7
2022-07-31T10:16:52.380Z,22.9
2022-07-31T10:22:25.271Z,23
2022-07-31T10:28:00.191Z,23.1
2022-07-31T10:33:43.865Z,23
2022-07-31T10:39:20.116Z,23.1
2022-07-31T10:44:54.927Z,23.1
2022-07-31T10:50:39.837Z,23.2
2022-07-31T10:56:14.817Z,23.2
2022-07-31T11:01:52.690Z,23.3
2022-07-31T11:07:28.941Z,23.4
2022-07-31T11:13:03.808Z,23.5
2022-07-31T11:19:00.390Z,23.6
2022-07-31T11:24:32.976Z,23.7
2022-07-31T11:30:10.961Z,23.6
2022-07-31T11:35:48.998Z,23.7
2022-07-31T11:41:24.869Z,23.8
2022-07-31T11:46:59.719Z,23.9
2022-07-31T11:52:37.134Z,23.9
2022-07-31T11:58:12.700Z,24
2022-07-31T12:03:48.528Z,24
2022-07-31T12:10:00.220Z,24.1
2022-07-31T12:15:38.981Z,24.2
2022-07-31T12:21:13.890Z,24.3
2022-07-31T12:26:48.770Z,24.4
2022-07-31T12:32:27.343Z,24.6
2022-07-31T12:38:10.336Z,24.7
2022-07-31T12:44:23.929Z,24.9
2022-07-31T12:49:59.707Z,25.1
2022-07-31T12:55:34.986Z,25.4
2022-07-31T13:01:09.891Z,25.7
2022-07-31T13:06:46.628Z,26
2022-07-31T13:12:30.458Z,26
2022-07-31T13:18:27.322Z,25.9
2022-07-31T13:24:01.258Z,25.9
2022-07-31T13:29:36.175Z,26.4
2022-07-31T13:35:20.040Z,26.7
2022-07-31T13:41:04.243Z,26.7
2022-07-31T13:46:39.010Z,26.9
2022-07-31T13:52:13.746Z,27.2
2022-07-31T13:57:51.627Z,27.5
2022-07-31T14:03:36.361Z,27.6
2022-07-31T14:09:14.057Z,28
2022-07-31T14:14:48.907Z,28
2022-07-31T14:20:23.890Z,28.1
2022-07-31T14:25:58.875Z,28.5
2022-07-31T14:31:37.158Z,28.9
2022-07-31T14:37:20.119Z,29.2
2022-07-31T14:42:55.395Z,29.4
2022-07-31T14:48:30.456Z,29.7
2022-07-31T14:54:06.371Z,29.9
2022-07-31T14:59:42.294Z,30.1
2022-07-31T15:06:37.195Z,29.7
2022-07-31T15:13:22.477Z,29
2022-07-31T15:19:18.995Z,28.7
2022-07-31T15:24:51.585Z,28.5
2022-07-31T15:30:26.341Z,28.8
2022-07-31T15:36:01.991Z,29
2022-07-31T15:41:38.060Z,29.5
2022-07-31T15:47:13.071Z,29.5
2022-07-31T15:52:47.810Z,29
2022-07-31T15:58:22.505Z,29.1
2022-07-31T16:04:00.362Z,29.7
2022-07-31T16:09:36.482Z,30
2022-07-31T16:15:54.171Z,30.4
2022-07-31T16:21:28.946Z,30.6
2022-07-31T16:27:05.579Z,30.5
2022-07-31T16:32:44.016Z,30.4
2022-07-31T16:38:18.763Z,30.7
2022-07-31T16:43:53.541Z,31
2022-07-31T16:49:35.813Z,31.1
2022-07-31T16:55:13.392Z,31.2
2022-07-31T17:00:48.328Z,31.3
2022-07-31T17:06:34.604Z,31.4
2022-07-31T17:12:13.127Z,31.1
2022-07-31T17:18:09.679Z,30.4
2022-07-31T17:23:50.820Z,30
2022-07-31T17:29:26.410Z,29.6
2022-07-31T17:35:00.998Z,29.3
2022-07-31T17:40:44.393Z,29
2022-07-31T17:46:22.204Z,28.8
2022-07-31T17:52:23.942Z,28.5
2022-07-31T17:57:58.701Z,28.4
2022-07-31T18:03:33.367Z,28.2
2022-07-31T18:09:10.127Z,28
2022-07-31T18:14:44.940Z,27.9
2022-07-31T18:20:20.274Z,27.7
2022-07-31T18:25:56.087Z,27.5
2022-07-31T18:31:32.527Z,27.4
2022-07-31T18:37:11.342Z,27.2
2022-07-31T18:42:46.193Z,27.1
2022-07-31T18:48:21.887Z,27
2022-07-31T18:53:56.527Z,26.8
2022-07-31T18:59:32.293Z,26.7
2022-07-31T19:05:07.242Z,26.5
2022-07-31T19:10:56.598Z,25.6
2022-07-31T19:16:52.980Z,24.9
2022-07-31T19:22:30.663Z,24.5
2022-07-31T19:28:05.507Z,24.1
2022-07-31T19:33:52.000Z,23.9
2022-07-31T19:39:26.738Z,23.7
2022-07-31T19:45:02.598Z,23.6
2022-07-31T19:50:37.225Z,23.4
2022-07-31T19:56:19.862Z,23.2
2022-07-31T20:01:56.096Z,23.1
2022-07-31T20:07:32.866Z,22.8
2022-07-31T20:13:07.934Z,22.6
2022-07-31T20:19:07.112Z,22.6
2022-07-31T20:24:41.782Z,22.4
2022-07-31T20:30:18.631Z,22.2
2022-07-31T20:35:54.193Z,22.1
2022-07-31T20:41:30.171Z,22
2022-07-31T20:47:05.041Z,21.8
2022-07-31T20:52:39.889Z,21.8
2022-07-31T20:58:23.348Z,21.6
2022-07-31T21:03:58.193Z,21.5
2022-07-31T21:09:34.469Z,21.3
2022-07-31T21:15:18.727Z,21.3
2022-07-31T21:21:22.795Z,21.2
2022-07-31T21:26:58.201Z,21
2022-07-31T21:32:36.244Z,20.9
2022-07-31T21:38:12.458Z,20.8
2022-07-31T21:43:58.461Z,20.7
2022-07-31T21:49:37.192Z,20.6
2022-07-31T21:55:12.690Z,20.5
2022-07-31T22:00:47.381Z,20.9
2022-07-31T22:06:26.176Z,21.4
2022-07-31T22:12:02.427Z,21.5
2022-07-31T22:17:59.032Z,21.6
2022-07-31T22:23:31.567Z,21.6
2022-07-31T22:29:06.327Z,21.7
2022-07-31T22:34:41.137Z,21.7
2022-07-31T22:40:16.064Z,21.7
2022-07-31T22:45:51.038Z,21.7
2022-07-31T22:51:25.851Z,21.7
2022-07-31T22:57:01.610Z,21.7
2022-07-31T23:02:37.575Z,21.6
2022-07-31T23:08:13.650Z,21.6
2022-07-31T23:13:48.526Z,21.6
2022-07-31T23:19:45.274Z,21.6
2022-07-31T23:25:27.375Z,21.5
2022-07-31T23:31:02.114Z,21.5
2022-07-31T23:36:36.974Z,21.5
2022-07-31T23:42:11.812Z,21.4
2022-07-31T23:47:47.930Z,21.4
2022-07-31T23:53:23.650Z,21.4
2022-07-31T23:58:58.760Z,21.4
